Latest Weather Observations for Bushy Park

IDT60901

Issued at 11:51 pm EDT Saturday 16 December 2017 (issued every 10 minutes, with the page automatically refreshed every 10 minutes)

About weather observations | Map of Hobart area stations | Latest observations for Hobart area | Other Formats
Station Details ID: 095003 Name: BUSHY PARK (BUSHY PARK ESTATES) Lat: -42.71 Lon: 146.90 Height: 27.0 m
Data from the previous 72 hours. | See also: Recent months at Bushy Park
Date/Time
EDT
Temp
°C
App
Temp
°C
Dew
Point
°C
Rel
Hum
%
Delta-T
°C
Wind Press
QNH
hPa
Press
MSL
hPa
Rain since
9am
mm
Dir  Spd
km/h
Gust
km/h
Spd
kts
Gust
kts
16/11:30pm 10.9 8.5 6.9 76 1.9 N 9 13 5 7 - - 0.0
16/11:00pm 12.4 9.1 6.6 68 2.8 WNW 13 19 7 10 - - 0.0
16/10:30pm 10.8 9.0 7.9 82 1.4 NNW 7 11 4 6 - - 0.0
16/10:00pm 11.9 10.2 8.3 78 1.8 N 7 7 4 4 - - 0.0
16/09:30pm 12.3 10.8 8.5 77 1.9 N 6 7 3 4 - - 0.0
16/09:00pm 13.3 11.8 9.0 75 2.2 N 7 13 4 7 - - 0.0
16/08:30pm 15.6 13.4 7.9 60 3.9 WSW 9 19 5 10 - - 0.0
16/08:00pm 16.8 13.7 8.7 59 4.2 WSW 15 20 8 11 - - 0.0
16/07:30pm 17.6 14.7 8.1 53 4.8 WSW 13 20 7 11 - - 0.0
16/07:00pm 18.2 15.0 8.6 53 5.0 WSW 15 24 8 13 - - 0.0
16/06:30pm 18.9 15.5 9.1 53 5.1 WSW 17 26 9 14 - - 0.0
16/06:00pm 18.6 15.1 8.9 53 5.1 W 17 30 9 16 - - 0.0
16/05:30pm 19.2 16.4 10.1 55 4.9 WSW 15 26 8 14 - - 0.0
16/05:00pm 19.2 16.8 10.1 55 4.9 SW 13 20 7 11 - - 0.0
16/04:30pm 20.5 18.1 10.0 51 5.7 W 13 24 7 13 - - 0.0
16/04:00pm 20.2 17.7 9.8 51 5.6 WSW 13 22 7 12 - - 0.0
16/03:30pm 20.0 17.9 9.8 52 5.5 W 11 20 6 11 - - 0.0
16/03:00pm 20.1 17.1 10.6 54 5.2 WSW 17 26 9 14 - - 0.0
16/02:30pm 20.2 16.8 10.7 54 5.2 WSW 19 30 10 16 - - 0.0
16/02:00pm 19.0 15.5 10.8 59 4.4 SW 20 32 11 17 - - 0.0
16/01:30pm 19.5 17.0 11.2 58 4.5 SSW 15 26 8 14 - - 0.0
16/01:00pm 18.3 13.9 11.6 65 3.7 SW 26 39 14 21 - - 0.0
16/12:30pm 20.6 17.5 10.4 52 5.5 NNW 17 24 9 13 - - 0.0
16/12:00pm 21.3 18.1 10.1 48 6.1 NNW 17 26 9 14 - - 0.0
16/11:30am 20.9 16.8 10.1 50 5.8 NNW 22 32 12 17 - - 0.0
16/11:00am 20.8 17.3 10.2 50 5.7 NNW 19 30 10 16 - - 0.0
16/10:30am 21.6 16.6 10.8 50 5.9 N 28 35 15 19 - - 0.0
16/10:18am 20.8 15.4 9.5 48 6.0 N 28 39 15 21 - - 0.0
16/10:00am 20.8 18.2 9.5 48 6.0 N 13 17 7 9 - - 0.0
16/09:30am 19.5 17.4 9.6 52 5.3 N 11 17 6 9 - - 0.0
16/09:00am 19.7 16.3 9.2 50 5.5 N 17 30 9 16 - - 0.0
16/08:30am 19.2 15.2 9.2 52 5.3 N 20 28 11 15 - - 0.0
16/08:00am 18.1 14.1 9.0 55 4.7 N 20 28 11 15 - - 0.0
16/07:30am 15.9 12.2 10.3 69 3.0 N 20 26 11 14 - - 0.0
16/07:00am 13.7 12.5 10.3 80 1.8 WSW 7 11 4 6 - - 0.0
16/06:30am 11.4 9.4 8.8 84 1.3 NNW 9 13 5 7 - - 0.0
16/06:00am 11.1 9.0 8.3 83 1.4 NNW 9 11 5 6 - - 0.0
16/05:30am 9.4 6.1 8.2 92 0.6 NNW 15 17 8 9 - - 0.0
16/05:00am 8.7 4.5 7.4 91 0.6 NNW 19 24 10 13 - - 0.0
16/04:30am 8.3 6.5 7.0 91 0.6 N 6 13 3 7 - - 0.0
16/04:00am 8.4 6.5 6.9 90 0.7 N 6 9 3 5 - - 0.0
16/03:30am 8.4 7.7 6.9 90 0.7 CALM 0 6 0 3 - - 0.0
16/03:00am 8.2 5.8 6.9 91 0.6 NNW 9 11 5 6 - - 0.0
16/02:30am 8.7 6.0 7.2 90 0.7 NNW 11 17 6 9 - - 0.0
16/02:00am 9.0 6.7 7.3 89 0.8 WSW 9 13 5 7 - - 0.0
16/01:30am 9.9 7.3 7.6 85 1.1 NW 11 17 6 9 - - 0.0
16/01:00am 10.3 7.3 7.8 84 1.2 NNW 13 17 7 9 - - 0.0
16/12:30am 10.7 8.5 7.8 82 1.4 NNW 9 13 5 7 - - 0.0
16/12:00am 12.3 9.3 7.8 74 2.2 NNW 13 17 7 9 - - 0.0
 
Date/Time
EDT
Temp
°C
App
Temp
°C
Dew
Point
°C
Rel
Hum
%
Delta-T
°C
Wind Press
QNH
hPa
Press
MSL
hPa
Rain since
9am
mm
Dir  Spd
km/h
Gust
km/h
Spd
kts
Gust
kts
15/11:30pm 11.9 9.5 8.7 81 1.6 N 11 15 6 8 - - 0.0
15/11:00pm 13.2 11.2 8.7 74 2.3 NNW 9 11 5 6 - - 0.0
15/10:30pm 15.3 12.1 7.0 57 4.1 NW 13 17 7 9 - - 0.0
15/10:00pm 14.7 11.7 7.5 62 3.6 NW 13 17 7 9 - - 0.0
15/09:30pm 14.1 12.2 9.2 72 2.5 W 9 11 5 6 - - 0.0
15/09:00pm 15.5 14.0 9.1 65 3.3 N 7 9 4 5 - - 0.0
15/08:30pm 16.8 15.6 9.4 61 3.9 W 6 9 3 5 - - 0.0
15/08:00pm 18.6 16.4 8.0 50 5.4 W 9 13 5 7 - - 0.0
15/07:30pm 19.9 17.0 6.7 42 6.7 SW 11 24 6 13 - - 0.0
15/07:00pm 21.4 18.8 7.6 41 7.1 SW 11 19 6 10 - - 0.0
15/06:30pm 21.7 18.6 7.3 39 7.4 WSW 13 19 7 10 - - 0.0
15/06:00pm 22.9 19.5 7.5 37 8.0 WSW 15 20 8 11 - - 0.0
15/05:30pm 23.3 20.2 7.3 35 8.3 WSW 13 22 7 12 - - 0.0
15/05:00pm 23.5 19.6 7.3 35 8.4 WSW 17 24 9 13 - - 0.0
15/04:30pm 24.2 20.4 6.0 31 9.3 WSW 15 24 8 13 - - 0.0
15/04:00pm 23.5 20.5 6.2 32 8.8 NNW 11 19 6 10 - - 0.0
15/03:30pm 23.1 19.5 6.7 34 8.4 N 15 20 8 11 - - 0.0
15/03:00pm 22.3 18.7 6.8 36 8.0 NNE 15 19 8 10 - - 0.0
15/02:30pm 21.5 18.9 6.2 37 7.7 E 9 13 5 7 - - 0.0
15/02:00pm 21.1 18.7 6.9 39 7.2 NE 9 13 5 7 - - 0.0
15/01:30pm 20.1 17.4 5.7 39 7.1 NE 9 15 5 8 - - 0.0
15/01:00pm 19.7 16.9 5.3 39 7.1 NNE 9 17 5 9 - - 0.0
15/12:30pm 19.5 16.0 5.3 39 6.9 N 13 20 7 11 - - 0.0
15/12:00pm 18.7 14.8 5.2 41 6.6 N 15 20 8 11 - - 0.0
15/11:30am 18.0 14.3 4.7 41 6.4 NNW 13 22 7 12 - - 0.0
15/11:00am 18.1 14.9 5.2 42 6.2 NNW 11 22 6 12 - - 0.0
15/10:30am 17.0 13.7 4.4 43 5.9 NNW 11 17 6 9 - - 0.0
15/10:00am 16.7 11.8 4.0 43 5.9 N 19 26 10 14 - - 0.0
15/09:30am 15.9 12.1 5.6 50 4.9 NNW 15 24 8 13 - - 0.0
15/09:00am 15.1 10.6 6.0 54 4.4 N 19 28 10 15 - - 0.0
15/08:30am 14.4 9.8 5.4 54 4.2 N 19 28 10 15 - - 0.0
15/08:00am 13.6 11.9 7.5 66 3.0 N 6 11 3 6 - - 0.0
15/07:30am 11.9 9.7 6.0 67 2.8 NNE 7 9 4 5 - - 0.0
15/07:00am 10.1 7.9 6.0 76 1.9 NW 7 11 4 6 - - 0.0
15/06:30am 8.2 6.1 5.8 85 1.1 N 6 9 3 5 - - 0.0
15/06:00am 7.6 6.3 5.8 88 0.8 WNW 2 9 1 5 - - 0.0
15/05:30am 6.8 4.3 5.0 88 0.8 S 7 9 4 5 - - 0.0
15/05:00am 7.5 4.8 5.5 87 0.9 N 9 11 5 6 - - 0.0
15/04:30am 8.5 6.3 5.2 80 1.5 S 6 7 3 4 - - 0.0
15/04:00am 8.3 5.4 4.7 78 1.6 N 9 13 5 7 - - 0.0
15/03:30am 8.7 6.3 5.2 79 1.6 N 7 9 4 5 - - 0.0
15/03:00am 10.0 6.8 5.0 71 2.3 NNW 11 13 6 7 - - 0.0
15/02:30am 11.6 8.1 3.6 58 3.5 W 11 26 6 14 - - 0.0
15/02:00am 12.2 7.9 3.2 54 4.0 WSW 15 26 8 14 - - 0.0
15/01:30am 12.0 7.7 3.5 56 3.8 WSW 15 26 8 14 - - 0.0
15/01:00am 12.2 8.2 3.0 53 4.0 W 13 20 7 11 - - 0.0
15/12:30am 13.4 8.7 3.2 50 4.6 W 17 30 9 16 - - 0.0
15/12:00am 13.9 11.3 6.0 59 3.8 NW 9 22 5 12 - - 0.0
 
Date/Time
EDT
Temp
°C
App
Temp
°C
Dew
Point
°C
Rel
Hum
%
Delta-T
°C
Wind Press
QNH
hPa
Press
MSL
hPa
Rain since
9am
mm
Dir  Spd
km/h
Gust
km/h
Spd
kts
Gust
kts
14/11:30pm 14.2 10.4 5.9 57 4.0 WNW 15 28 8 15 - - 0.0
14/11:00pm 14.3 10.9 5.8 56 4.0 WNW 13 22 7 12 - - 0.0
14/10:30pm 14.2 10.7 5.6 56 4.1 NW 13 24 7 13 - - 0.0
14/10:00pm 14.0 10.6 5.9 58 3.9 WNW 13 26 7 14 - - 0.0
14/09:30pm 14.1 10.6 5.5 56 4.1 WNW 13 24 7 13 - - 0.0
14/09:00pm 14.7 10.0 6.0 56 4.2 W 20 37 11 20 - - 0.0
14/08:30pm 15.7 12.0 7.8 59 4.0 WSW 17 30 9 16 - - 0.0
14/08:00pm 17.1 13.8 6.4 49 5.3 WSW 13 22 7 12 - - 0.0
14/07:30pm 18.2 14.6 4.8 41 6.4 W 13 22 7 12 - - 0.0
14/07:00pm 19.8 15.8 2.8 32 7.9 NW 13 24 7 13 - - 0.0
14/06:30pm 20.0 15.1 2.2 30 8.2 WNW 17 26 9 14 - - 0.0
14/06:00pm 20.5 16.5 3.1 31 8.2 NNW 13 28 7 15 - - 0.0
14/05:30pm 20.6 15.4 3.8 33 8.0 WSW 20 35 11 19 - - 0.0
14/05:00pm 20.2 15.0 3.8 34 7.8 WSW 20 35 11 19 - - 0.0
14/04:30pm 20.5 16.0 4.3 34 7.8 WSW 17 30 9 16 - - 0.0
14/04:00pm 20.3 16.5 5.7 38 7.2 WNW 15 26 8 14 - - 0.0
14/03:30pm 20.2 17.0 6.9 42 6.7 WNW 13 26 7 14 - - 0.0
14/03:00pm 20.1 15.7 6.5 41 6.8 WSW 19 32 10 17 - - 0.0
14/02:30pm 21.5 16.9 6.7 38 7.5 W 20 37 11 20 - - 0.0
14/02:00pm 21.3 17.0 7.2 40 7.2 NW 19 30 10 16 - - 0.0
14/01:30pm 20.8 16.8 8.3 44 6.5 WNW 19 37 10 20 - - 0.0
14/01:04pm 21.3 16.3 11.0 51 5.7 WSW 28 46 15 25 - - 0.0
14/01:00pm 20.3 15.4 10.0 51 5.5 WSW 26 46 14 25 - - 0.0
14/12:43pm 22.4 17.2 10.2 46 6.7 WSW 28 46 15 25 - - 0.0
14/12:30pm 23.8 20.3 10.1 42 7.5 WNW 19 33 10 18 - - 0.0
14/12:00pm 24.8 21.8 10.5 40 8.0 WNW 17 32 9 17 - - 0.0
14/11:30am 24.0 19.9 10.1 41 7.6 NNW 22 32 12 17 - - 0.0
14/11:00am 23.4 20.0 10.7 44 7.0 NW 19 30 10 16 - - 0.0
14/10:30am 23.1 21.5 12.9 52 5.9 NW 13 24 7 13 - - 0.0
14/10:00am 23.5 21.2 14.0 55 5.6 NNW 19 28 10 15 - - 0.0
14/09:30am 22.3 21.9 15.1 63 4.3 NW 11 15 6 8 - - 0.0
14/09:00am 21.6 19.9 13.7 60 4.6 NW 15 24 8 13 - - 0.0
14/08:30am 21.3 20.3 14.7 66 3.9 NNW 13 19 7 10 - - 0.0
14/08:00am 20.5 20.2 14.4 68 3.6 NW 9 13 5 7 - - 0.0
14/07:30am 21.1 20.9 14.7 67 3.8 NW 9 13 5 7 - - 0.0
14/07:00am 20.3 19.5 14.1 67 3.6 NNW 11 15 6 8 - - 0.0
14/06:30am 18.5 17.7 14.0 75 2.6 NNW 11 13 6 7 - - 0.0
14/06:00am 18.3 17.3 13.4 73 2.8 WNW 11 15 6 8 - - 0.0
14/05:30am 17.6 17.0 14.5 82 1.8 NW 11 17 6 9 - - 0.0
14/05:00am 17.5 17.6 14.0 80 2.0 NNW 6 9 3 5 - - 0.0
14/04:30am 17.5 17.2 14.4 82 1.8 SW 9 13 5 7 - - 0.0
14/04:00am 17.8 17.4 14.0 78 2.2 SSW 9 11 5 6 - - 0.0
14/03:30am 18.1 17.9 13.7 75 2.5 E 7 9 4 5 - - 0.0
14/03:00am 18.9 18.7 12.9 68 3.4 NE 6 11 3 6 - - 0.0
14/02:30am 19.8 19.2 12.2 61 4.2 N 7 11 4 6 - - 0.0
14/02:00am 20.7 18.0 10.5 52 5.6 WNW 15 32 8 17 - - 0.0
14/01:30am 17.6 16.2 12.2 70 3.0 W 11 26 6 14 - - 0.0
14/01:00am 18.4 16.6 10.9 61 4.1 NNW 11 13 6 7 - - 0.0
14/12:30am 16.7 16.1 13.5 81 1.8 NW 9 13 5 7 - - 0.0
14/12:00am 18.0 17.0 13.4 74 2.6 NW 11 15 6 8 - - 0.0

Latest Capital City Observations: Canberra | Sydney | Melbourne | Brisbane | Adelaide | Perth | Hobart | Darwin

Other Formats:

Comma delimited format used in spreadsheet applications
http://www.bom.gov.au/fwo/IDT60901/IDT60901.94964.axf

JavaScript Object Notation format (JSON) in row-major order
http://www.bom.gov.au/fwo/IDT60901/IDT60901.94964.json